Wetterdaten: aktuell Freitag, 29.05.2020 12:00
Datum Zeit Temp. 2 m Feuchte 2 m Luftdruck Regen Wind Richtung Richtung Taupunkt Windchill Windben
29.05.2020 12:00 16,5 C 44 % 1029,0 hPa 0,0 l/m 15,5 km/h (3 Bft) O-NO 67 4,2 C 12,9 C 17,6 km/h (3 Bft)
29.05.2020 11:55 16,7 C 46 % 1029,0 hPa 0,0 l/m 11,5 km/h (2 Bft) NO 45 5,0 C 14,4 C 15,5 km/h (3 Bft)
29.05.2020 11:50 16,5 C 48 % 1029,0 hPa 0,0 l/m 8,3 km/h (2 Bft) N 360 5,5 C 15,5 C 15,5 km/h (3 Bft)
29.05.2020 11:45 16,4 C 46 % 1029,0 hPa 0,0 l/m 14,0 km/h (3 Bft) O 90 4,8 C 13,2 C 17,6 km/h (3 Bft)
29.05.2020 11:40 16,3 C 47 % 1029,0 hPa 0,0 l/m 7,6 km/h (2 Bft) NO 45 5,0 C 15,7 C 8,6 km/h (2 Bft)
29.05.2020 11:35 16,2 C 47 % 1029,0 hPa 0,0 l/m 13,7 km/h (3 Bft) O-SO 112 4,9 C 13,1 C 19,8 km/h (3 Bft)
29.05.2020 11:30 16,0 C 48 % 1029,0 hPa 0,0 l/m 3,2 km/h (1 Bft) N 360 5,0 C 16,0 C 4,3 km/h (1 Bft)
29.05.2020 11:25 16,0 C 48 % 1029,0 hPa 0,0 l/m 17,6 km/h (3 Bft) N-NO 22 5,0 C 11,7 C 19,8 km/h (3 Bft)
29.05.2020 11:20 15,9 C 48 % 1029,0 hPa 0,0 l/m 11,5 km/h (2 Bft) O-NO 67 4,9 C 13,5 C 13,3 km/h (3 Bft)
29.05.2020 11:15 15,9 C 46 % 1029,0 hPa 0,0 l/m 18,0 km/h (3 Bft) O-SO 112 4,3 C 11,4 C 19,8 km/h (3 Bft)
29.05.2020 11:10 16,0 C 46 % 1029,0 hPa 0,0 l/m 17,3 km/h (3 Bft) NO 45 4,4 C 11,7 C 24,1 km/h (4 Bft)
29.05.2020 11:05 16,1 C 51 % 1029,0 hPa 0,0 l/m 11,5 km/h (2 Bft) N-NO 22 6,0 C 13,7 C 17,6 km/h (3 Bft)
29.05.2020 11:00 16,0 C 52 % 1029,0 hPa 0,0 l/m 21,6 km/h (4 Bft) N 360 6,2 C 10,7 C 33,1 km/h (5 Bft)
29.05.2020 10:55 15,9 C 52 % 1029,0 hPa 0,0 l/m 6,8 km/h (2 Bft) N-NW 337 6,1 C 15,7 C 11,2 km/h (2 Bft)
29.05.2020 10:50 15,8 C 52 % 1029,0 hPa 0,0 l/m 10,1 km/h (2 Bft) N 360 6,0 C 14,0 C 13,3 km/h (3 Bft)
29.05.2020 10:45 15,6 C 49 % 1029,0 hPa 0,0 l/m 14,8 km/h (3 Bft) NO 45 4,9 C 12,0 C 17,6 km/h (3 Bft)
29.05.2020 10:40 15,4 C 52 % 1029,0 hPa 0,0 l/m 7,2 km/h (2 Bft) N-NW 337 5,6 C 15,0 C 8,6 km/h (2 Bft)
29.05.2020 10:35 15,3 C 50 % 1029,0 hPa 0,0 l/m 12,2 km/h (2 Bft) O 90 4,9 C 12,5 C 15,5 km/h (3 Bft)
29.05.2020 10:30 15,2 C 53 % 1029,0 hPa 0,0 l/m 9,7 km/h (2 Bft) O-SO 112 5,7 C 13,5 C 13,3 km/h (3 Bft)
29.05.2020 10:25 15,1 C 53 % 1029,0 hPa 0,0 l/m 17,3 km/h (3 Bft) O-NO 67 5,6 C 10,6 C 19,8 km/h (3 Bft)
29.05.2020 10:20 15,1 C 49 % 1029,0 hPa 0,0 l/m 18,7 km/h (3 Bft) N 360 4,5 C 10,2 C 22,0 km/h (4 Bft)
29.05.2020 10:15 15,0 C 54 % 1029,0 hPa 0,0 l/m 12,6 km/h (3 Bft) O-NO 67 5,8 C 12,0 C 15,5 km/h (3 Bft)
29.05.2020 10:10 14,8 C 53 % 1029,0 hPa 0,0 l/m 7,2 km/h (2 Bft) NO 45 5,3 C 14,3 C 22,0 km/h (4 Bft)
29.05.2020 10:05 14,6 C 53 % 1029,0 hPa 0,0 l/m 7,6 km/h (2 Bft) O 90 5,1 C 13,9 C 13,3 km/h (3 Bft)
29.05.2020 10:00 14,5 C 54 % 1029,0 hPa 0,0 l/m 10,4 km/h (2 Bft) O 90 5,3 C 12,4 C 13,3 km/h (3 Bft)
29.05.2020 09:55 14,3 C 55 % 1029,0 hPa 0,0 l/m 9,0 km/h (2 Bft) NO 45 5,4 C 12,8 C 13,3 km/h (3 Bft)
29.05.2020 09:50 14,3 C 54 % 1029,0 hPa 0,0 l/m 12,2 km/h (2 Bft) N 360 5,1 C 11,4 C 15,5 km/h (3 Bft)
29.05.2020 09:45 14,2 C 53 % 1029,0 hPa 0,0 l/m 13,0 km/h (3 Bft) N-NO 22 4,8 C 11,0 C 17,6 km/h (3 Bft)
29.05.2020 09:40 14,2 C 54 % 1029,0 hPa 0,0 l/m 15,5 km/h (3 Bft) S-SO 157 5,0 C 10,1 C 24,1 km/h (4 Bft)
29.05.2020 09:35 14,3 C 55 % 1029,0 hPa 0,0 l/m 13,0 km/h (3 Bft) NO 45 5,4 C 11,1 C 19,8 km/h (3 Bft)
29.05.2020 09:30 14,2 C 59 % 1029,0 hPa 0,0 l/m 7,9 km/h (2 Bft) N-NO 22 6,3 C 13,3 C 17,6 km/h (3 Bft)
29.05.2020 09:25 14,0 C 59 % 1029,0 hPa 0,0 l/m 11,2 km/h (2 Bft) NO 45 6,1 C 11,5 C 13,3 km/h (3 Bft)
29.05.2020 09:20 13,8 C 59 % 1029,0 hPa 0,0 l/m 10,1 km/h (2 Bft) NO 45 5,9 C 11,7 C 13,3 km/h (3 Bft)
29.05.2020 09:15 13,8 C 58 % 1029,0 hPa 0,0 l/m 10,4 km/h (2 Bft) S-SO 157 5,7 C 11,6 C 15,5 km/h (3 Bft)
29.05.2020 09:10 13,8 C 62 % 1029,0 hPa 0,0 l/m 14,8 km/h (3 Bft) NO 45 6,6 C 9,8 C 19,8 km/h (3 Bft)
29.05.2020 09:05 13,6 C 66 % 1029,0 hPa 0,0 l/m 11,9 km/h (2 Bft) N-NO 22 7,4 C 10,7 C 15,5 km/h (3 Bft)
29.05.2020 09:00 13,4 C 69 % 1029,0 hPa 0,0 l/m 8,6 km/h (2 Bft) NO 45 7,8 C 12,1 C 13,3 km/h (3 Bft)
29.05.2020 08:55 13,2 C 69 % 1029,0 hPa 0,0 l/m 2,9 km/h (1 Bft) NW 315 7,6 C 13,2 C 6,5 km/h (2 Bft)
29.05.2020 08:50 13,0 C 70 % 1029,0 hPa 0,0 l/m 6,5 km/h (2 Bft) NO 45 7,7 C 13,0 C 8,6 km/h (2 Bft)
29.05.2020 08:45 12,8 C 71 % 1029,0 hPa 0,0 l/m 7,6 km/h (2 Bft) N-NO 22 7,7 C 12,0 C 8,6 km/h (2 Bft)
29.05.2020 08:40 12,7 C 72 % 1029,0 hPa 0,0 l/m 7,6 km/h (2 Bft) O-NO 67 7,8 C 11,9 C 8,6 km/h (2 Bft)
29.05.2020 08:35 12,6 C 73 % 1029,0 hPa 0,0 l/m 2,9 km/h (1 Bft) N-NW 337 7,9 C 12,6 C 8,6 km/h (2 Bft)
29.05.2020 08:30 12,4 C 73 % 1029,0 hPa 0,0 l/m 5,4 km/h (2 Bft) N 360 7,7 C 12,4 C 6,5 km/h (2 Bft)
29.05.2020 08:25 12,4 C 72 % 1029,0 hPa 0,0 l/m 4,3 km/h (1 Bft) O-SO 112 7,5 C 12,4 C 6,5 km/h (2 Bft)
29.05.2020 08:20 12,4 C 73 % 1029,0 hPa 0,0 l/m 5,4 km/h (2 Bft) NO 45 7,7 C 12,4 C 11,2 km/h (2 Bft)
29.05.2020 08:15 12,3 C 75 % 1029,0 hPa 0,0 l/m 6,5 km/h (2 Bft) N-NW 337 8,0 C 12,3 C 8,6 km/h (2 Bft)
29.05.2020 08:10 12,2 C 75 % 1029,0 hPa 0,0 l/m 5,4 km/h (2 Bft) NO 45 7,9 C 12,2 C 8,6 km/h (2 Bft)
29.05.2020 08:05 12,1 C 76 % 1029,0 hPa 0,0 l/m 8,3 km/h (2 Bft) N 360 8,0 C 10,9 C 11,2 km/h (2 Bft)
29.05.2020 08:00 12,0 C 76 % 1029,0 hPa 0,0 l/m 9,7 km/h (2 Bft) N 360 7,9 C 10,0 C 13,3 km/h (3 Bft)
29.05.2020 07:55 11,8 C 78 % 1029,0 hPa 0,0 l/m 7,2 km/h (2 Bft) N-NW 337 8,1 C 11,3 C 11,2 km/h (2 Bft)
29.05.2020 07:50 11,6 C 79 % 1029,0 hPa 0,0 l/m 4,0 km/h (1 Bft) NO 45 8,1 C 11,6 C 6,5 km/h (2 Bft)
29.05.2020 07:45 11,5 C 80 % 1029,0 hPa 0,0 l/m 4,0 km/h (1 Bft) NO 45 8,2 C 11,5 C 6,5 km/h (2 Bft)
29.05.2020 07:40 11,2 C 81 % 1029,0 hPa 0,0 l/m 4,7 km/h (1 Bft) N-NW 337 8,1 C 11,2 C 6,5 km/h (2 Bft)
29.05.2020 07:35 11,1 C 82 % 1029,0 hPa 0,0 l/m 5,0 km/h (1 Bft) N 360 8,1 C 11,1 C 6,5 km/h (2 Bft)
29.05.2020 07:30 10,9 C 82 % 1029,0 hPa 0,0 l/m 2,9 km/h (1 Bft) N-NO 22 7,9 C 10,9 C 4,3 km/h (1 Bft)
29.05.2020 07:25 10,6 C 84 % 1029,0 hPa 0,0 l/m 5,0 km/h (1 Bft) N-NO 22 8,0 C 10,6 C 6,5 km/h (2 Bft)
29.05.2020 07:20 10,4 C 85 % 1029,0 hPa 0,0 l/m 0,7 km/h (0 Bft) W-NW 292 8,0 C 10,4 C 2,2 km/h (1 Bft)
29.05.2020 07:15 10,0 C 85 % 1029,0 hPa 0,0 l/m 0,0 km/h (0 Bft) NO 45 7,6 C 10,0 C 0,0 km/h (0 Bft)
29.05.2020 07:10 9,6 C 85 % 1029,0 hPa 0,0 l/m 5,4 km/h (2 Bft) N 360 7,2 C 9,6 C 6,5 km/h (2 Bft)
29.05.2020 07:05 9,2 C 85 % 1029,0 hPa 0,0 l/m 2,5 km/h (1 Bft) W-NW 292 6,8 C 9,2 C 4,3 km/h (1 Bft)
29.05.2020 07:00 9,0 C 85 % 1029,0 hPa 0,0 l/m 1,8 km/h (1 Bft) N 360 6,6 C 9,0 C 2,2 km/h (1 Bft)
_ Min-Zeit 01:40 12:00 15:15 - 17:00 - - 01:40 01:40 17:00
Minimum _ 6,7 C 44 % 1028,0 hPa - 0,0 km/h (0 Bft) - - 4,0 C 6,7 C 0,0 km/h (0 Bft)
_ Max-Zeit 11:55 04:55 13:10 13:30 11:00 - - 14:40 11:30 11:00
Maximum _ 16,7 C 87 % 1030,0 hPa 0,3 l/m 21,6 km/h
N (4 Bft)
- - 8,6 C 16,0 C 33,1 km/h
N (5 Bft)
Durchschnitt _ 11,4 C 72 % 1028,9 hPa #0,8 l/m 3,8 km/h (1 Bft) N - 6,3 C 10,9 C 6,4 km/h (2 Bft)